Time;durP1;ratioP1;P1;durP2;ratioP2;P2;SDS_P1;SDS_P2;PMS_P1;PMS_P2;Temp;Humidity;BMP_temperature;BMP_pressure;BME280_temperature;BME280_humidity;BME280_pressure;Samples;Min_cycle;Max_cycle;Signal;HPM_P1;HPM_P2
2022/08/09 00:00:34;;;;;;;1.03;0.47;;;16.00;99.90;;;;;;4977073;28;20551;-68
2022/08/09 00:03:02;;;;;;;0.70;0.60;;;15.60;99.90;;;;;;4987946;28;20659;-69
2022/08/09 00:05:29;;;;;;;1.20;0.67;;;16.00;99.90;;;;;;4991385;28;20186;-70
2022/08/09 00:07:57;;;;;;;1.17;0.60;;;16.50;99.90;;;;;;4991815;28;20261;-69
2022/08/09 00:10:25;;;;;;;0.90;0.60;;;16.90;99.90;;;;;;4989284;28;20176;-71
2022/08/09 00:12:53;;;;;;;1.33;0.50;;;17.10;99.90;;;;;;4991707;28;20273;-70
2022/08/09 00:15:21;;;;;;;0.63;0.50;;;17.60;99.90;;;;;;4991545;28;20187;-71
2022/08/09 00:17:49;;;;;;;2.73;0.50;;;18.10;99.90;;;;;;4992103;28;20658;-71
2022/08/09 00:20:17;;;;;;;1.40;0.80;;;18.20;99.90;;;;;;4976543;28;20253;-69
2022/08/09 00:22:45;;;;;;;2.30;0.60;;;18.20;99.90;;;;;;4977647;28;20179;-73
2022/08/09 00:25:13;;;;;;;2.40;0.60;;;18.40;99.90;;;;;;4988110;28;20218;-69
2022/08/09 00:27:40;;;;;;;4.83;0.53;;;17.50;99.90;;;;;;4991878;28;20697;-69
2022/08/09 00:30:09;;;;;;;0.57;0.57;;;16.70;99.90;;;;;;4990111;28;20202;-70
2022/08/09 00:32:37;;;;;;;2.40;0.60;;;16.80;99.90;;;;;;4991777;28;20183;-69
2022/08/09 00:35:05;;;;;;;1.63;0.63;;;16.60;99.90;;;;;;4991811;28;20178;-69
2022/08/09 00:37:33;;;;;;;1.90;0.50;;;16.60;99.90;;;;;;4991840;28;20178;-71
2022/08/09 00:40:01;;;;;;;0.73;0.50;;;16.10;99.90;;;;;;4990452;28;20183;-69
2022/08/09 00:42:29;;;;;;;0.50;0.50;;;15.80;99.90;;;;;;4972309;28;20522;-69
2022/08/09 00:44:57;;;;;;;1.20;1.00;;;15.90;99.90;;;;;;4988805;28;20565;-73
2022/08/09 00:47:25;;;;;;;1.20;0.50;;;15.90;99.90;;;;;;4991559;28;20327;-69
2022/08/09 00:49:54;;;;;;;0.57;0.57;;;16.30;99.90;;;;;;4991523;28;20178;-72
2022/08/09 00:52:23;;;;;;;1.23;0.60;;;16.60;99.90;;;;;;4972198;28;20265;-69
2022/08/09 00:54:52;;;;;;;1.37;0.50;;;17.60;99.90;;;;;;4972257;28;20185;-69
2022/08/09 00:57:23;;;;;;;0.60;0.50;;;17.90;99.90;;;;;;4972196;28;20186;-69
2022/08/09 00:59:51;;;;;;;0.97;0.50;;;17.60;99.90;;;;;;4972235;28;20194;-71
2022/08/09 01:02:22;;;;;;;0.80;0.50;;;17.00;99.90;;;;;;4989783;28;20183;-73
2022/08/09 01:05:07;;;;;;;1.00;0.47;;;16.40;99.90;;;;;;4990504;28;20186;-69
2022/08/09 01:07:57;;;;;;;0.87;0.50;;;16.10;99.90;;;;;;4995190;28;20225;-72
2022/08/09 01:10:58;;;;;;;1.33;0.70;;;16.10;99.90;;;;;;4994288;28;20193;-68
2022/08/09 01:13:39;;;;;;;1.60;0.50;;;16.10;99.90;;;;;;4993408;28;20183;-70
2022/08/09 01:16:09;;;;;;;0.60;0.60;;;16.00;99.90;;;;;;4995360;28;20587;-68
2022/08/09 01:18:40;;;;;;;0.50;0.50;;;16.00;99.90;;;;;;4995133;28;20295;-69
2022/08/09 01:21:20;;;;;;;1.30;0.67;;;15.80;99.90;;;;;;4994037;28;20182;-74
2022/08/09 01:23:48;;;;;;;2.20;0.50;;;15.40;99.90;;;;;;4993847;28;20181;-71
2022/08/09 01:26:52;;;;;;;1.53;0.60;;;15.30;99.90;;;;;;4994697;28;20751;-71
2022/08/09 01:29:58;;;;;;;0.60;0.50;;;15.20;99.90;;;;;;4994939;28;20743;-71
2022/08/09 01:32:39;;;;;;;1.27;0.70;;;15.20;99.90;;;;;;4991342;28;20244;-70
2022/08/09 01:35:28;;;;;;;0.83;0.73;;;15.10;99.90;;;;;;4982025;28;20266;-71
2022/08/09 01:38:00;;;;;;;1.60;0.70;;;15.20;99.90;;;;;;4975236;28;20229;-71
2022/08/09 01:40:30;;;;;;;0.80;0.50;;;15.10;99.90;;;;;;4982427;28;20197;-70
2022/08/09 01:43:04;;;;;;;1.67;0.60;;;15.10;99.90;;;;;;4994584;28;20301;-75
2022/08/09 01:45:33;;;;;;;1.50;0.67;;;15.00;99.90;;;;;;4987446;28;20184;-71
2022/08/09 01:48:02;;;;;;;0.67;0.60;;;14.90;99.90;;;;;;4975040;28;20757;-71
2022/08/09 01:50:30;;;;;;;0.70;0.60;;;14.90;99.90;;;;;;4982229;28;20213;-72
2022/08/09 01:52:59;;;;;;;1.10;0.70;;;14.90;99.90;;;;;;4992658;28;20245;-72
2022/08/09 01:55:28;;;;;;;2.37;0.70;;;15.00;99.90;;;;;;4975069;28;20191;-71
2022/08/09 01:57:56;;;;;;;0.57;0.40;;;15.10;99.90;;;;;;4975111;28;20205;-72
2022/08/09 02:00:26;;;;;;;0.60;0.50;;;15.20;99.90;;;;;;4980951;28;20712;-74
2022/08/09 02:02:54;;;;;;;1.67;1.00;;;15.40;99.90;;;;;;4994564;28;20190;-76
2022/08/09 02:05:23;;;;;;;1.30;0.77;;;15.70;99.90;;;;;;4977019;28;20670;-72
2022/08/09 02:08:05;;;;;;;0.73;0.70;;;15.60;99.90;;;;;;4994388;28;20184;-71
2022/08/09 02:10:37;;;;;;;0.93;0.40;;;15.60;99.90;;;;;;4986304;28;20190;-72
2022/08/09 02:13:07;;;;;;;1.63;0.60;;;15.50;99.90;;;;;;4982464;28;20201;-73
2022/08/09 02:15:40;;;;;;;2.10;0.77;;;15.30;99.90;;;;;;4994189;28;20662;-69
2022/08/09 02:18:08;;;;;;;1.30;0.70;;;15.30;99.90;;;;;;4994061;28;20194;-71
2022/08/09 02:20:43;;;;;;;0.50;0.50;;;15.20;99.90;;;;;;4983546;28;20590;-71
2022/08/09 02:23:43;;;;;;;1.07;0.70;;;15.30;99.90;;;;;;4974512;28;20495;-71
2022/08/09 02:26:13;;;;;;;0.90;0.50;;;15.20;99.90;;;;;;4967104;28;20310;-72
2022/08/09 02:28:46;;;;;;;1.53;0.47;;;15.30;99.90;;;;;;4974461;28;20186;-71
2022/08/09 02:31:34;;;;;;;2.00;0.60;;;15.50;99.90;;;;;;4975319;28;20183;-72
2022/08/09 02:34:08;;;;;;;0.93;0.70;;;15.60;99.90;;;;;;4974325;28;20515;-70
2022/08/09 02:36:41;;;;;;;3.87;0.70;;;15.60;99.90;;;;;;4974437;28;20645;-71
2022/08/09 02:39:12;;;;;;;3.10;0.60;;;15.30;99.90;;;;;;4974252;28;20182;-69
2022/08/09 02:41:59;;;;;;;3.00;0.63;;;15.20;99.90;;;;;;4993759;28;20189;-73
2022/08/09 02:44:32;;;;;;;3.20;0.70;;;15.30;99.90;;;;;;4986581;28;20674;-70
2022/08/09 02:47:06;;;;;;;1.37;0.60;;;15.30;99.90;;;;;;4973962;28;20709;-72
2022/08/09 02:49:57;;;;;;;2.30;0.80;;;15.70;99.90;;;;;;4977377;28;20980;-70
2022/08/09 02:52:37;;;;;;;1.07;0.80;;;16.20;99.90;;;;;;4990574;28;20187;-70
2022/08/09 02:55:08;;;;;;;1.07;0.60;;;16.20;99.90;;;;;;4984272;28;20201;-70
2022/08/09 02:57:38;;;;;;;1.80;0.90;;;16.10;99.90;;;;;;4973901;28;20187;-70
2022/08/09 03:00:10;;;;;;;2.60;1.10;;;15.60;99.90;;;;;;4974008;28;20183;-72
2022/08/09 03:02:41;;;;;;;3.47;0.60;;;15.70;99.90;;;;;;4974107;28;20184;-73
2022/08/09 03:05:11;;;;;;;1.60;0.70;;;15.50;99.90;;;;;;4993126;28;20225;-70
2022/08/09 03:07:39;;;;;;;1.50;0.57;;;16.00;99.90;;;;;;4975655;28;20229;-71
2022/08/09 03:10:08;;;;;;;1.70;0.50;;;17.10;99.90;;;;;;4993127;28;20277;-72
2022/08/09 03:12:39;;;;;;;1.80;0.60;;;17.90;99.90;;;;;;4975619;28;20248;-70
2022/08/09 03:15:09;;;;;;;2.13;0.80;;;18.40;99.90;;;;;;4978288;28;20214;-71
2022/08/09 03:17:37;;;;;;;1.57;0.63;;;18.30;99.90;;;;;;4975562;28;20290;-70
2022/08/09 03:20:08;;;;;;;1.23;0.60;;;18.90;99.90;;;;;;4992920;28;20262;-72
2022/08/09 03:22:43;;;;;;;1.10;0.53;;;19.20;99.90;;;;;;4985224;28;20178;-71
2022/08/09 03:25:13;;;;;;;1.33;0.80;;;19.60;99.90;;;;;;4972772;28;20175;-70
2022/08/09 03:27:46;;;;;;;2.23;0.60;;;20.10;99.90;;;;;;4955976;28;20220;-71
2022/08/09 03:30:17;;;;;;;2.43;0.40;;;20.10;99.90;;;;;;4973119;28;20179;-72
2022/08/09 03:32:46;;;;;;;1.20;0.50;;;18.90;99.90;;;;;;4988821;28;20643;-70
2022/08/09 03:35:14;;;;;;;1.50;0.57;;;17.50;99.90;;;;;;4992439;28;20210;-74
2022/08/09 03:37:42;;;;;;;0.40;0.40;;;16.50;99.90;;;;;;4992722;28;20237;-72
2022/08/09 03:40:10;;;;;;;0.50;0.50;;;16.00;99.90;;;;;;4992071;28;20187;-70
2022/08/09 03:42:38;;;;;;;0.67;0.60;;;15.80;99.90;;;;;;4973155;28;20508;-70
2022/08/09 03:45:07;;;;;;;1.07;0.43;;;16.60;99.90;;;;;;4992381;28;20572;-70
2022/08/09 03:47:34;;;;;;;1.17;0.50;;;17.70;99.90;;;;;;4977058;28;20612;-71
2022/08/09 03:50:05;;;;;;;1.93;0.70;;;18.30;99.90;;;;;;4973213;28;20541;-70
2022/08/09 03:52:35;;;;;;;1.23;0.90;;;18.70;99.90;;;;;;4972959;28;20190;-71
2022/08/09 03:55:05;;;;;;;4.13;3.17;;;18.50;99.90;;;;;;4984138;28;20188;-71
2022/08/09 03:57:32;;;;;;;2.33;1.03;;;18.50;99.90;;;;;;4973130;28;20258;-70
2022/08/09 04:00:00;;;;;;;0.63;0.40;;;18.20;99.90;;;;;;4989196;28;20218;-71
2022/08/09 04:02:31;;;;;;;0.77;0.50;;;18.30;99.90;;;;;;4972355;28;20271;-71
2022/08/09 04:05:01;;;;;;;1.07;0.60;;;18.40;99.90;;;;;;4991296;28;20245;-70
2022/08/09 04:07:29;;;;;;;0.50;0.50;;;18.70;99.90;;;;;;4992782;28;20293;-69
2022/08/09 04:09:57;;;;;;;1.17;0.50;;;18.30;99.90;;;;;;4992312;28;20886;-71
2022/08/09 04:12:37;;;;;;;1.07;0.40;;;18.40;99.90;;;;;;4990124;28;20689;-69
2022/08/09 04:15:05;;;;;;;0.30;0.30;;;18.20;99.90;;;;;;4976474;28;20855;-69
2022/08/09 04:17:33;;;;;;;0.50;0.50;;;17.80;99.90;;;;;;4972630;28;20210;-69
2022/08/09 04:20:01;;;;;;;0.80;0.40;;;17.80;99.90;;;;;;4972625;28;20194;-72
2022/08/09 04:22:28;;;;;;;1.80;0.73;;;17.60;99.90;;;;;;4982566;28;20215;-70
2022/08/09 04:24:56;;;;;;;1.60;0.50;;;18.20;99.90;;;;;;4992169;28;20182;-68
2022/08/09 04:27:24;;;;;;;1.13;0.53;;;18.60;99.90;;;;;;4991862;28;20214;-69
2022/08/09 04:29:52;;;;;;;3.63;0.50;;;18.40;99.90;;;;;;4992083;28;20238;-71
2022/08/09 04:32:20;;;;;;;1.13;0.60;;;17.60;99.90;;;;;;4982815;28;20183;-67
2022/08/09 04:34:48;;;;;;;1.33;0.70;;;17.20;99.90;;;;;;4972935;28;20714;-68
2022/08/09 04:37:15;;;;;;;1.93;0.63;;;16.80;99.90;;;;;;4983361;28;20240;-68
2022/08/09 04:39:43;;;;;;;1.27;0.50;;;16.50;99.90;;;;;;4995702;28;20207;-68
2022/08/09 04:42:11;;;;;;;3.70;0.60;;;16.40;99.90;;;;;;4984181;28;20226;-69
2022/08/09 04:44:39;;;;;;;1.80;0.47;;;16.70;99.90;;;;;;4976339;28;20179;-69
2022/08/09 04:47:07;;;;;;;1.17;0.50;;;16.80;99.90;;;;;;4989319;28;20222;-68
2022/08/09 04:49:37;;;;;;;1.37;0.50;;;16.70;99.90;;;;;;4996209;28;20182;-69
2022/08/09 04:52:06;;;;;;;0.93;0.57;;;16.50;99.90;;;;;;4985229;28;20650;-68
2022/08/09 04:54:34;;;;;;;2.47;0.63;;;16.40;99.90;;;;;;4997450;28;20212;-68
2022/08/09 04:57:02;;;;;;;1.27;0.50;;;16.70;99.90;;;;;;4995145;28;20186;-69
2022/08/09 04:59:30;;;;;;;2.83;0.60;;;17.00;99.90;;;;;;4995496;28;20183;-68
2022/08/09 05:01:58;;;;;;;0.80;0.50;;;17.30;99.90;;;;;;4995526;28;20175;-69
2022/08/09 05:04:26;;;;;;;2.53;0.60;;;17.50;99.90;;;;;;4994407;28;20183;-69
2022/08/09 05:06:54;;;;;;;2.30;0.60;;;17.30;99.90;;;;;;4994129;28;20305;-70
2022/08/09 05:09:21;;;;;;;1.73;1.10;;;17.30;99.90;;;;;;4975636;28;20179;-69
2022/08/09 05:11:49;;;;;;;5.97;1.93;;;17.30;99.90;;;;;;4975790;28;20191;-69
2022/08/09 05:14:17;;;;;;;1.33;0.97;;;17.30;99.90;;;;;;4975739;28;20189;-69
2022/08/09 05:16:44;;;;;;;1.43;0.50;;;17.10;99.90;;;;;;4975787;28;20266;-69
2022/08/09 05:19:13;;;;;;;2.53;0.60;;;17.00;99.90;;;;;;4983506;28;20253;-69
2022/08/09 05:21:43;;;;;;;0.70;0.40;;;16.90;99.90;;;;;;4988984;28;20187;-68
2022/08/09 05:24:10;;;;;;;0.40;0.40;;;16.80;99.90;;;;;;4975265;28;20190;-69
2022/08/09 05:26:38;;;;;;;4.10;0.70;;;16.80;99.90;;;;;;4975525;28;20254;-69
2022/08/09 05:29:06;;;;;;;0.87;0.50;;;16.80;99.90;;;;;;4975357;28;20274;-68
2022/08/09 05:31:34;;;;;;;0.50;0.50;;;16.90;99.90;;;;;;4977770;28;20179;-68
2022/08/09 05:34:01;;;;;;;2.47;0.83;;;16.90;99.90;;;;;;4977549;28;20237;-69
2022/08/09 05:36:29;;;;;;;0.53;0.50;;;16.90;99.90;;;;;;4976985;28;20190;-69
2022/08/09 05:38:57;;;;;;;1.97;0.57;;;16.60;99.90;;;;;;4976567;28;20179;-68
2022/08/09 05:41:25;;;;;;;1.33;0.50;;;16.60;99.90;;;;;;4976746;28;20650;-68
2022/08/09 05:43:52;;;;;;;3.57;0.53;;;16.50;99.90;;;;;;4976704;28;20189;-69
2022/08/09 05:46:20;;;;;;;1.13;0.60;;;16.30;99.90;;;;;;4977825;28;20214;-69
2022/08/09 05:48:48;;;;;;;2.47;0.50;;;16.00;99.90;;;;;;4976273;28;20717;-69
2022/08/09 05:51:16;;;;;;;2.40;0.50;;;16.00;99.90;;;;;;4976480;28;20670;-69
2022/08/09 05:53:44;;;;;;;1.73;0.60;;;15.80;99.90;;;;;;4989614;28;20183;-69
2022/08/09 05:56:11;;;;;;;0.90;0.50;;;15.70;99.90;;;;;;4976494;28;20233;-69
2022/08/09 05:58:39;;;;;;;0.93;0.60;;;15.60;99.90;;;;;;4976568;28;20266;-69
2022/08/09 06:01:07;;;;;;;1.00;0.70;;;15.50;99.90;;;;;;4985663;28;20317;-72
2022/08/09 06:03:35;;;;;;;1.07;0.70;;;15.50;99.90;;;;;;4988400;28;20201;-72
2022/08/09 06:06:03;;;;;;;4.90;0.70;;;15.50;99.90;;;;;;4994929;28;20218;-69
2022/08/09 06:08:31;;;;;;;2.57;0.90;;;15.50;99.90;;;;;;4995799;28;20184;-73
2022/08/09 06:10:59;;;;;;;2.43;0.80;;;15.60;99.90;;;;;;4995104;28;20219;-70
2022/08/09 06:13:27;;;;;;;2.33;0.90;;;15.60;99.90;;;;;;4993998;28;20185;-70
2022/08/09 06:15:55;;;;;;;1.67;0.83;;;15.70;99.90;;;;;;4993966;28;20191;-69
2022/08/09 06:18:23;;;;;;;1.37;0.70;;;15.70;99.90;;;;;;4994079;28;20588;-72
2022/08/09 06:20:51;;;;;;;1.43;0.73;;;15.80;99.90;;;;;;4976734;28;20190;-69
2022/08/09 06:23:19;;;;;;;1.17;0.70;;;15.80;99.90;;;;;;4994221;28;20265;-70
2022/08/09 06:25:47;;;;;;;1.10;0.50;;;15.80;99.90;;;;;;4994472;28;20177;-69
2022/08/09 06:28:15;;;;;;;2.43;0.60;;;15.60;99.90;;;;;;4995514;28;20181;-72
2022/08/09 06:30:42;;;;;;;2.30;0.70;;;15.50;99.90;;;;;;4977639;28;20198;-69
2022/08/09 06:33:10;;;;;;;6.27;0.83;;;15.50;99.90;;;;;;4977738;28;20641;-69
2022/08/09 06:35:38;;;;;;;0.90;0.43;;;15.30;99.90;;;;;;4995252;28;20171;-69
2022/08/09 06:38:06;;;;;;;3.63;0.63;;;15.20;99.90;;;;;;4995223;28;20202;-69
2022/08/09 06:40:34;;;;;;;4.43;0.90;;;15.00;99.90;;;;;;4995204;28;20179;-71
2022/08/09 06:43:02;;;;;;;0.77;0.60;;;15.00;99.90;;;;;;4995032;28;20180;-70
2022/08/09 06:45:30;;;;;;;1.27;0.53;;;15.00;99.90;;;;;;4994939;28;20179;-69
2022/08/09 06:47:58;;;;;;;0.90;0.70;;;14.90;99.90;;;;;;4994799;28;20226;-70
2022/08/09 06:50:25;;;;;;;1.63;0.60;;;14.90;99.90;;;;;;4995002;28;20181;-69
2022/08/09 06:52:53;;;;;;;0.80;0.60;;;14.90;99.90;;;;;;4994761;28;20178;-69
2022/08/09 06:55:25;;;;;;;0.90;0.63;;;15.00;99.90;;;;;;4994852;28;20672;-73
2022/08/09 06:57:52;;;;;;;0.50;0.47;;;15.00;99.90;;;;;;4994514;28;20273;-73
2022/08/09 07:00:21;;;;;;;1.10;0.57;;;14.90;99.90;;;;;;4994214;28;20170;-70
2022/08/09 07:02:50;;;;;;;1.13;0.60;;;14.70;99.90;;;;;;4994717;28;20590;-70
2022/08/09 07:05:18;;;;;;;3.00;0.50;;;14.70;99.90;;;;;;4994639;28;20230;-70
2022/08/09 07:07:45;;;;;;;1.20;0.63;;;14.60;99.90;;;;;;4994415;28;20543;-70
2022/08/09 07:10:13;;;;;;;0.50;0.50;;;14.60;99.90;;;;;;4994481;28;20216;-70
2022/08/09 07:12:41;;;;;;;1.87;0.70;;;14.50;99.90;;;;;;4994423;28;20272;-70
2022/08/09 07:15:09;;;;;;;4.60;2.63;;;14.40;99.90;;;;;;4994516;28;20177;-71
2022/08/09 07:17:37;;;;;;;1.37;1.20;;;14.30;99.90;;;;;;4994493;28;20201;-71
2022/08/09 07:20:05;;;;;;;2.60;1.83;;;14.20;99.90;;;;;;4977096;28;20613;-70
2022/08/09 07:22:33;;;;;;;2.20;1.10;;;14.00;99.90;;;;;;4976708;28;20652;-70
2022/08/09 07:25:01;;;;;;;3.63;1.40;;;13.70;99.90;;;;;;4976813;28;20232;-71
2022/08/09 07:27:29;;;;;;;2.73;1.07;;;13.60;99.90;;;;;;4993990;28;20232;-70
2022/08/09 07:29:57;;;;;;;2.07;0.83;;;13.50;99.90;;;;;;4994300;28;20229;-71
2022/08/09 07:32:25;;;;;;;2.83;0.80;;;13.50;99.90;;;;;;4994154;28;20187;-72
2022/08/09 07:34:53;;;;;;;3.00;0.73;;;13.50;99.90;;;;;;4994067;28;20632;-73
2022/08/09 07:37:21;;;;;;;1.00;0.80;;;13.40;99.90;;;;;;4994007;28;20181;-70
2022/08/09 07:39:49;;;;;;;1.90;1.10;;;13.50;99.90;;;;;;4994119;28;20177;-71
2022/08/09 07:42:17;;;;;;;1.90;0.90;;;13.40;99.90;;;;;;4974357;28;20208;-73
2022/08/09 07:44:44;;;;;;;1.97;1.00;;;13.50;99.90;;;;;;5001409;28;20176;-70
2022/08/09 07:47:12;;;;;;;5.87;2.97;;;13.50;99.90;;;;;;4993586;28;20233;-72
2022/08/09 07:49:40;;;;;;;4.57;3.67;;;13.50;99.90;;;;;;4980244;28;20242;-69
2022/08/09 07:52:09;;;;;;;2.50;1.80;;;13.50;99.90;;;;;;4988508;28;20211;-71
2022/08/09 07:54:37;;;;;;;5.57;1.00;;;13.50;99.90;;;;;;4981317;28;20189;-70
2022/08/09 07:57:05;;;;;;;1.57;1.03;;;13.60;99.90;;;;;;4992007;28;20175;-71
2022/08/09 07:59:33;;;;;;;2.50;2.27;;;13.60;99.90;;;;;;4991005;28;20183;-70
2022/08/09 08:02:02;;;;;;;2.70;2.50;;;13.50;99.90;;;;;;4989437;28;20188;-72
2022/08/09 08:04:30;;;;;;;3.20;2.90;;;13.50;99.90;;;;;;4991776;28;20596;-71
2022/08/09 08:06:58;;;;;;;1.60;1.50;;;13.50;99.90;;;;;;4992443;28;20231;-70
2022/08/09 08:09:25;;;;;;;0.90;0.90;;;13.60;99.90;;;;;;4992314;28;20186;-69
2022/08/09 08:11:53;;;;;;;1.77;0.90;;;13.60;99.90;;;;;;4991037;28;20267;-69
2022/08/09 08:14:21;;;;;;;1.40;0.90;;;13.50;99.90;;;;;;4991957;28;20215;-70
2022/08/09 08:16:48;;;;;;;4.73;1.10;;;13.50;99.90;;;;;;4974841;28;20239;-70
2022/08/09 08:19:16;;;;;;;2.10;1.10;;;13.50;99.90;;;;;;4992821;28;20183;-71
2022/08/09 08:21:44;;;;;;;1.53;0.80;;;13.50;99.90;;;;;;4990620;28;20184;-71
2022/08/09 08:24:12;;;;;;;3.57;1.33;;;13.50;99.90;;;;;;4973342;28;20215;-71
2022/08/09 08:26:39;;;;;;;2.40;0.70;;;13.40;99.90;;;;;;4972705;28;20313;-71
2022/08/09 08:29:07;;;;;;;1.67;0.80;;;13.40;99.90;;;;;;4980205;28;20251;-70
2022/08/09 08:31:35;;;;;;;0.80;0.80;;;13.40;99.90;;;;;;4974047;28;20192;-70
2022/08/09 08:34:02;;;;;;;0.93;0.70;;;13.40;99.90;;;;;;4991242;28;20177;-70
2022/08/09 08:36:30;;;;;;;4.20;1.00;;;13.30;99.90;;;;;;4992041;28;20649;-70
2022/08/09 08:38:58;;;;;;;2.73;0.90;;;13.40;99.90;;;;;;4991711;28;20691;-70
2022/08/09 08:41:27;;;;;;;2.07;0.90;;;13.30;99.90;;;;;;4990777;28;20231;-71
2022/08/09 08:43:55;;;;;;;3.17;0.77;;;13.30;99.90;;;;;;4983563;28;20238;-71
2022/08/09 08:46:38;;;;;;;1.13;1.03;;;13.20;99.90;;;;;;4991999;28;20224;-70
2022/08/09 08:49:07;;;;;;;1.03;0.80;;;13.20;99.90;;;;;;4991700;28;20235;-71
2022/08/09 08:51:37;;;;;;;2.53;1.00;;;13.10;99.90;;;;;;4988416;28;20193;-71
2022/08/09 08:54:10;;;;;;;1.47;0.90;;;13.10;99.90;;;;;;4979071;28;20269;-71
2022/08/09 08:56:39;;;;;;;1.10;0.70;;;13.00;99.90;;;;;;4991760;28;20258;-70
2022/08/09 08:59:10;;;;;;;3.30;0.90;;;13.00;99.90;;;;;;4991712;28;20301;-71
2022/08/09 09:01:42;;;;;;;1.07;0.70;;;12.90;99.90;;;;;;4988759;28;20198;-71
2022/08/09 09:04:12;;;;;;;1.33;1.20;;;12.90;99.90;;;;;;4972240;28;20324;-71
2022/08/09 09:06:44;;;;;;;3.80;1.60;;;12.90;99.90;;;;;;4972111;28;20216;-72
2022/08/09 09:09:15;;;;;;;1.53;0.90;;;12.90;99.90;;;;;;4972150;28;20185;-72
2022/08/09 09:11:43;;;;;;;1.37;1.03;;;12.90;99.90;;;;;;4974874;28;20687;-71
2022/08/09 09:14:18;;;;;;;1.00;0.90;;;12.90;99.90;;;;;;4991592;28;20291;-71
2022/08/09 09:16:46;;;;;;;2.37;0.80;;;13.00;99.90;;;;;;4991530;28;20317;-71
2022/08/09 09:19:14;;;;;;;0.83;0.80;;;13.00;99.90;;;;;;4991583;28;20176;-71
2022/08/09 09:22:00;;;;;;;2.10;0.80;;;12.90;99.90;;;;;;4992020;28;20182;-71
2022/08/09 09:24:42;;;;;;;1.17;0.60;;;12.90;99.90;;;;;;4983424;28;20608;-71
2022/08/09 09:27:21;;;;;;;0.50;0.50;;;13.00;99.90;;;;;;4975586;28;20261;-70
2022/08/09 09:29:49;;;;;;;0.70;0.70;;;12.90;99.90;;;;;;4987715;28;20185;-72
2022/08/09 09:32:25;;;;;;;2.53;0.83;;;12.90;99.90;;;;;;4994266;28;20199;-71
2022/08/09 09:35:08;;;;;;;0.80;0.80;;;12.90;99.90;;;;;;4994882;28;20181;-71
2022/08/09 09:37:39;;;;;;;0.70;0.67;;;12.90;99.90;;;;;;4986381;28;20192;-70
2022/08/09 09:40:07;;;;;;;0.90;0.70;;;12.90;99.90;;;;;;4986789;28;20197;-71
2022/08/09 09:42:35;;;;;;;0.60;0.60;;;12.90;99.90;;;;;;4982772;28;20271;-72
2022/08/09 09:45:06;;;;;;;1.67;0.70;;;12.80;99.90;;;;;;4975443;28;20178;-70
2022/08/09 09:47:36;;;;;;;2.77;0.53;;;12.80;99.90;;;;;;4975326;28;20684;-69
2022/08/09 09:50:09;;;;;;;0.67;0.63;;;12.80;99.90;;;;;;4975558;28;20196;-70
2022/08/09 09:52:52;;;;;;;1.33;0.80;;;12.80;99.90;;;;;;4982245;28;20558;-72
2022/08/09 09:55:20;;;;;;;2.23;0.80;;;12.70;99.90;;;;;;4986354;28;20189;-70
2022/08/09 09:58:07;;;;;;;1.10;0.90;;;12.70;99.90;;;;;;4994710;28;20231;-71
2022/08/09 10:00:45;;;;;;;0.93;0.60;;;12.50;99.90;;;;;;4983355;28;20250;-70
2022/08/09 10:03:13;;;;;;;0.90;0.80;;;12.50;99.90;;;;;;4994188;28;20522;-71
2022/08/09 10:06:00;;;;;;;0.70;0.70;;;12.40;99.90;;;;;;4994105;28;20275;-71
2022/08/09 10:08:28;;;;;;;0.83;0.63;;;12.40;99.90;;;;;;4993472;28;20711;-71
2022/08/09 10:10:55;;;;;;;0.57;0.57;;;12.30;99.90;;;;;;4993811;28;20197;-71
2022/08/09 10:13:23;;;;;;;0.63;0.63;;;12.30;99.90;;;;;;4993154;28;20595;-72
2022/08/09 10:15:52;;;;;;;1.43;0.70;;;12.20;99.90;;;;;;4977219;28;20212;-71
2022/08/09 10:18:19;;;;;;;2.47;0.70;;;12.30;99.90;;;;;;4990352;28;20175;-71
2022/08/09 10:20:47;;;;;;;0.73;0.73;;;12.20;99.90;;;;;;4993604;28;20175;-72
2022/08/09 10:23:24;;;;;;;2.00;0.90;;;12.10;99.90;;;;;;4992398;28;20188;-71
2022/08/09 10:25:51;;;;;;;1.17;0.77;;;12.10;99.90;;;;;;4994083;28;20243;-72
2022/08/09 10:28:19;;;;;;;3.20;0.80;;;12.00;99.90;;;;;;4994113;28;20245;-71
2022/08/09 10:30:46;;;;;;;2.23;1.10;;;12.00;99.90;;;;;;4992985;28;20238;-72
2022/08/09 10:33:15;;;;;;;1.93;0.90;;;11.90;99.90;;;;;;4993829;28;20182;-71
2022/08/09 10:35:43;;;;;;;0.80;0.80;;;11.90;99.90;;;;;;4993866;28;20209;-72
2022/08/09 10:38:11;;;;;;;0.90;0.60;;;11.80;99.90;;;;;;4983777;28;20192;-72
2022/08/09 10:40:38;;;;;;;1.67;0.70;;;11.80;99.90;;;;;;4974414;28;20640;-70
2022/08/09 10:43:06;;;;;;;2.63;0.73;;;11.70;99.90;;;;;;4974288;28;20188;-71
2022/08/09 10:45:34;;;;;;;1.40;0.80;;;11.70;99.90;;;;;;4974938;28;20185;-71
2022/08/09 10:48:16;;;;;;;1.80;0.80;;;11.70;99.90;;;;;;4975347;28;20238;-71
2022/08/09 10:51:14;;;;;;;1.30;0.90;;;11.70;99.90;;;;;;4975835;28;20190;-71
2022/08/09 10:53:54;;;;;;;1.07;0.70;;;11.70;99.90;;;;;;4975988;28;20240;-71
2022/08/09 10:56:30;;;;;;;1.73;0.90;;;11.70;99.90;;;;;;4987549;28;20180;-71
2022/08/09 10:58:59;;;;;;;1.57;1.00;;;11.70;99.90;;;;;;4993578;28;20646;-71
2022/08/09 11:01:32;;;;;;;1.90;1.00;;;11.80;99.90;;;;;;4994831;28;20178;-71
2022/08/09 11:04:30;;;;;;;4.10;1.00;;;11.70;99.90;;;;;;4995260;28;20181;-71
2022/08/09 11:07:00;;;;;;;1.10;1.00;;;11.70;99.90;;;;;;4994797;28;20272;-71
2022/08/09 11:09:42;;;;;;;2.23;0.90;;;11.70;99.90;;;;;;4994910;28;20642;-71
2022/08/09 11:12:28;;;;;;;1.90;1.30;;;11.80;99.90;;;;;;4994876;28;20553;-71
2022/08/09 11:15:19;;;;;;;1.40;1.17;;;11.80;99.90;;;;;;4994566;28;20287;-71
2022/08/09 11:17:52;;;;;;;2.30;1.43;;;11.80;99.90;;;;;;4994390;28;20183;-71
2022/08/09 11:20:37;;;;;;;1.00;1.00;;;11.80;99.90;;;;;;4994857;28;20177;-71
2022/08/09 11:23:05;;;;;;;3.43;1.73;;;11.90;99.90;;;;;;4994549;28;20183;-70
2022/08/09 11:25:32;;;;;;;2.90;2.23;;;11.90;99.90;;;;;;4994433;28;20217;-71
2022/08/09 11:27:59;;;;;;;2.33;1.80;;;11.90;99.90;;;;;;4994396;28;20214;-71
2022/08/09 11:30:28;;;;;;;3.63;2.20;;;11.90;99.90;;;;;;4994182;28;20180;-71
2022/08/09 11:33:14;;;;;;;2.63;1.40;;;12.00;99.90;;;;;;4994482;28;20181;-71
2022/08/09 11:35:53;;;;;;;1.60;1.00;;;11.90;99.90;;;;;;4994232;28;20235;-69
2022/08/09 11:38:23;;;;;;;1.37;1.17;;;11.90;99.90;;;;;;4994179;28;20185;-71
2022/08/09 11:40:52;;;;;;;2.90;0.80;;;12.00;99.90;;;;;;4994117;28;20177;-70
2022/08/09 11:43:28;;;;;;;3.13;1.10;;;12.00;99.90;;;;;;4994083;28;20206;-70
2022/08/09 11:45:55;;;;;;;2.07;1.03;;;12.00;99.90;;;;;;4993669;28;20197;-70
2022/08/09 11:48:26;;;;;;;2.27;1.10;;;12.00;99.90;;;;;;4993836;28;20314;-70
2022/08/09 11:50:57;;;;;;;1.30;1.00;;;11.90;99.90;;;;;;4976286;28;20663;-70
2022/08/09 11:53:26;;;;;;;3.47;1.57;;;11.90;99.90;;;;;;4993912;28;20179;-70
2022/08/09 11:55:59;;;;;;;1.07;0.83;;;11.80;99.90;;;;;;4994001;28;20218;-70
2022/08/09 11:58:27;;;;;;;3.80;0.90;;;11.80;99.90;;;;;;4994231;28;20414;-70
2022/08/09 12:01:02;;;;;;;1.37;0.90;;;11.70;99.90;;;;;;4993976;28;20212;-71
2022/08/09 12:03:29;;;;;;;1.10;0.80;;;11.70;99.90;;;;;;4993889;28;20266;-70
2022/08/09 12:06:00;;;;;;;1.47;1.00;;;11.70;99.90;;;;;;4993803;28;20190;-70
2022/08/09 12:08:28;;;;;;;1.90;1.20;;;11.70;99.90;;;;;;4993793;28;20188;-71
2022/08/09 12:10:58;;;;;;;1.10;0.90;;;11.60;99.90;;;;;;4993770;28;20183;-70
2022/08/09 12:13:35;;;;;;;2.80;1.03;;;11.60;99.90;;;;;;4993505;28;20550;-70
2022/08/09 12:16:15;;;;;;;3.03;1.10;;;11.50;99.90;;;;;;4993636;28;20192;-70
2022/08/09 12:18:49;;;;;;;1.43;1.00;;;11.50;99.90;;;;;;4984308;28;20669;-72
2022/08/09 12:21:31;;;;;;;0.80;0.80;;;11.50;99.90;;;;;;4993775;28;20183;-72
2022/08/09 12:24:01;;;;;;;2.50;0.90;;;11.50;99.90;;;;;;4993548;28;20178;-72
2022/08/09 12:26:50;;;;;;;3.37;1.17;;;11.50;99.90;;;;;;4992478;28;20709;-71
2022/08/09 12:29:25;;;;;;;2.53;1.00;;;11.50;99.90;;;;;;4993729;28;20279;-71
2022/08/09 12:32:09;;;;;;;1.27;1.10;;;11.50;99.90;;;;;;4992159;28;20666;-71
2022/08/09 12:34:41;;;;;;;1.20;1.07;;;11.40;99.90;;;;;;4993554;28;20187;-71
2022/08/09 12:37:12;;;;;;;1.40;1.00;;;11.40;99.90;;;;;;4993532;28;20251;-71
2022/08/09 12:39:39;;;;;;;2.10;0.90;;;11.30;99.90;;;;;;4993504;28;20682;-71
2022/08/09 12:42:09;;;;;;;1.90;1.23;;;11.30;99.90;;;;;;4993288;28;20630;-71
2022/08/09 12:44:41;;;;;;;1.50;1.10;;;11.30;99.90;;;;;;4993353;28;20191;-71
2022/08/09 12:47:08;;;;;;;2.83;1.00;;;11.30;99.90;;;;;;4992950;28;20237;-70
2022/08/09 12:49:37;;;;;;;3.40;1.33;;;11.20;99.90;;;;;;4993380;28;20182;-71
2022/08/09 12:52:05;;;;;;;2.67;1.10;;;11.30;99.90;;;;;;4993345;28;20274;-71
2022/08/09 12:54:54;;;;;;;2.00;1.30;;;11.30;99.90;;;;;;4993397;28;20177;-72
2022/08/09 12:57:39;;;;;;;4.23;1.30;;;11.30;99.90;;;;;;4995154;28;20186;-72
2022/08/09 13:00:21;;;;;;;3.77;1.10;;;11.30;99.90;;;;;;4997131;28;20189;-72
2022/08/09 13:03:01;;;;;;;1.80;1.07;;;11.30;99.90;;;;;;4997448;28;20187;-71
2022/08/09 13:05:47;;;;;;;3.37;1.30;;;11.20;99.90;;;;;;4997443;28;20171;-71
2022/08/09 13:08:20;;;;;;;1.47;1.27;;;11.20;99.90;;;;;;4997114;28;20193;-71